Aviation Digital Data Service (ADDS)

Output produced by METARs form (1313 UTC 17 October 2017)
found at http://aviationweather.gov/adds/metars/
 
KHLG 171301Z 1713/1812 00000KT P6SM SKC 
     FM171400 22008KT P6SM SKC